sensor_id;sensor_type;location;lat;lon;timestamp;P1;durP1;ratioP1;P2;durP2;ratioP2
21814;SDS011;11069;48.988;8.450;2023-03-31T00:00:31;6.65;;;1.83;;
21814;SDS011;11069;48.988;8.450;2023-03-31T00:02:57;5.72;;;2.40;;
21814;SDS011;11069;48.988;8.450;2023-03-31T00:05:24;6.68;;;2.10;;
21814;SDS011;11069;48.988;8.450;2023-03-31T00:07:54;7.05;;;2.20;;
21814;SDS011;11069;48.988;8.450;2023-03-31T00:10:32;6.25;;;2.10;;
21814;SDS011;11069;48.988;8.450;2023-03-31T00:12:59;10.50;;;2.22;;
21814;SDS011;11069;48.988;8.450;2023-03-31T00:15:28;4.53;;;2.10;;
21814;SDS011;11069;48.988;8.450;2023-03-31T00:18:02;6.97;;;2.35;;
21814;SDS011;11069;48.988;8.450;2023-03-31T00:20:28;6.75;;;2.22;;
21814;SDS011;11069;48.988;8.450;2023-03-31T00:22:53;6.38;;;1.90;;
21814;SDS011;11069;48.988;8.450;2023-03-31T00:25:21;7.47;;;2.05;;
21814;SDS011;11069;48.988;8.450;2023-03-31T00:27:47;10.80;;;2.40;;
21814;SDS011;11069;48.988;8.450;2023-03-31T00:30:17;8.57;;;2.60;;
21814;SDS011;11069;48.988;8.450;2023-03-31T00:32:49;6.78;;;2.30;;
21814;SDS011;11069;48.988;8.450;2023-03-31T00:35:15;5.75;;;2.25;;
21814;SDS011;11069;48.988;8.450;2023-03-31T00:37:44;7.15;;;2.20;;
21814;SDS011;11069;48.988;8.450;2023-03-31T00:40:10;8.15;;;2.40;;
21814;SDS011;11069;48.988;8.450;2023-03-31T00:42:48;6.00;;;2.30;;
21814;SDS011;11069;48.988;8.450;2023-03-31T00:45:30;8.82;;;2.55;;
21814;SDS011;11069;48.988;8.450;2023-03-31T00:50:50;6.68;;;1.92;;
21814;SDS011;11069;48.988;8.450;2023-03-31T00:56:17;7.03;;;2.38;;
21814;SDS011;11069;48.988;8.450;2023-03-31T00:58:49;9.85;;;2.35;;
21814;SDS011;11069;48.988;8.450;2023-03-31T01:01:48;8.18;;;2.70;;
21814;SDS011;11069;48.988;8.450;2023-03-31T01:04:14;8.55;;;2.28;;
21814;SDS011;11069;48.988;8.450;2023-03-31T01:06:55;6.35;;;2.20;;
21814;SDS011;11069;48.988;8.450;2023-03-31T01:09:29;7.95;;;2.05;;
21814;SDS011;11069;48.988;8.450;2023-03-31T01:11:58;7.13;;;2.10;;
21814;SDS011;11069;48.988;8.450;2023-03-31T01:14:26;4.85;;;1.75;;
21814;SDS011;11069;48.988;8.450;2023-03-31T01:16:52;4.15;;;1.75;;
21814;SDS011;11069;48.988;8.450;2023-03-31T01:19:33;5.55;;;1.98;;
21814;SDS011;11069;48.988;8.450;2023-03-31T01:24:49;5.80;;;1.77;;
21814;SDS011;11069;48.988;8.450;2023-03-31T01:41:32;6.95;;;2.30;;
21814;SDS011;11069;48.988;8.450;2023-03-31T01:46:58;6.20;;;1.92;;
21814;SDS011;11069;48.988;8.450;2023-03-31T01:49:42;11.77;;;2.58;;
21814;SDS011;11069;48.988;8.450;2023-03-31T01:52:25;7.03;;;2.27;;
21814;SDS011;11069;48.988;8.450;2023-03-31T01:55:08;10.13;;;2.53;;
21814;SDS011;11069;48.988;8.450;2023-03-31T01:57:53;6.22;;;2.35;;
21814;SDS011;11069;48.988;8.450;2023-03-31T02:00:22;7.23;;;2.40;;
21814;SDS011;11069;48.988;8.450;2023-03-31T02:03:04;8.10;;;2.42;;
21814;SDS011;11069;48.988;8.450;2023-03-31T02:06:01;11.00;;;2.97;;
21814;SDS011;11069;48.988;8.450;2023-03-31T02:08:37;10.70;;;3.20;;
21814;SDS011;11069;48.988;8.450;2023-03-31T02:11:19;10.57;;;2.88;;
21814;SDS011;11069;48.988;8.450;2023-03-31T02:13:46;11.13;;;3.17;;
21814;SDS011;11069;48.988;8.450;2023-03-31T02:16:17;8.02;;;3.00;;
21814;SDS011;11069;48.988;8.450;2023-03-31T02:18:49;8.60;;;3.28;;
21814;SDS011;11069;48.988;8.450;2023-03-31T02:21:18;10.48;;;3.17;;
21814;SDS011;11069;48.988;8.450;2023-03-31T02:23:46;10.18;;;3.67;;
21814;SDS011;11069;48.988;8.450;2023-03-31T02:26:16;10.57;;;3.65;;
21814;SDS011;11069;48.988;8.450;2023-03-31T02:28:45;9.57;;;3.17;;
21814;SDS011;11069;48.988;8.450;2023-03-31T02:33:52;9.15;;;3.10;;
21814;SDS011;11069;48.988;8.450;2023-03-31T02:36:18;8.25;;;3.30;;
21814;SDS011;11069;48.988;8.450;2023-03-31T02:38:46;8.52;;;3.03;;
21814;SDS011;11069;48.988;8.450;2023-03-31T02:41:33;10.20;;;3.47;;
21814;SDS011;11069;48.988;8.450;2023-03-31T02:44:00;7.82;;;3.22;;
21814;SDS011;11069;48.988;8.450;2023-03-31T02:46:26;9.40;;;3.00;;
21814;SDS011;11069;48.988;8.450;2023-03-31T02:48:54;10.43;;;2.90;;
21814;SDS011;11069;48.988;8.450;2023-03-31T03:14:04;9.15;;;3.58;;
21814;SDS011;11069;48.988;8.450;2023-03-31T03:16:52;10.75;;;3.58;;
21814;SDS011;11069;48.988;8.450;2023-03-31T03:19:25;9.38;;;3.60;;
21814;SDS011;11069;48.988;8.450;2023-03-31T03:21:51;10.40;;;3.65;;
21814;SDS011;11069;48.988;8.450;2023-03-31T03:24:16;7.53;;;3.63;;
21814;SDS011;11069;48.988;8.450;2023-03-31T03:26:43;11.30;;;3.83;;
21814;SDS011;11069;48.988;8.450;2023-03-31T03:29:10;7.47;;;3.53;;
21814;SDS011;11069;48.988;8.450;2023-03-31T03:31:38;10.18;;;3.40;;
21814;SDS011;11069;48.988;8.450;2023-03-31T03:34:07;7.55;;;3.05;;
21814;SDS011;11069;48.988;8.450;2023-03-31T03:36:34;9.57;;;3.65;;
21814;SDS011;11069;48.988;8.450;2023-03-31T03:39:01;9.90;;;3.47;;
21814;SDS011;11069;48.988;8.450;2023-03-31T03:41:28;8.98;;;3.60;;
21814;SDS011;11069;48.988;8.450;2023-03-31T03:43:53;12.93;;;3.58;;
21814;SDS011;11069;48.988;8.450;2023-03-31T03:46:19;9.55;;;3.03;;
21814;SDS011;11069;48.988;8.450;2023-03-31T03:48:44;7.70;;;3.50;;
21814;SDS011;11069;48.988;8.450;2023-03-31T03:51:10;5.55;;;3.33;;
21814;SDS011;11069;48.988;8.450;2023-03-31T03:53:36;7.93;;;3.45;;
21814;SDS011;11069;48.988;8.450;2023-03-31T03:56:01;4.22;;;2.78;;
21814;SDS011;11069;48.988;8.450;2023-03-31T03:58:27;7.70;;;3.10;;
21814;SDS011;11069;48.988;8.450;2023-03-31T04:00:52;9.30;;;3.22;;
21814;SDS011;11069;48.988;8.450;2023-03-31T04:03:18;5.68;;;3.10;;
21814;SDS011;11069;48.988;8.450;2023-03-31T04:05:43;7.63;;;3.20;;
21814;SDS011;11069;48.988;8.450;2023-03-31T04:08:13;8.82;;;3.63;;
21814;SDS011;11069;48.988;8.450;2023-03-31T04:10:42;9.85;;;3.63;;
21814;SDS011;11069;48.988;8.450;2023-03-31T04:13:09;7.87;;;3.67;;
21814;SDS011;11069;48.988;8.450;2023-03-31T04:15:35;10.02;;;3.47;;
21814;SDS011;11069;48.988;8.450;2023-03-31T04:18:00;7.95;;;3.30;;
21814;SDS011;11069;48.988;8.450;2023-03-31T04:20:26;7.43;;;3.35;;
21814;SDS011;11069;48.988;8.450;2023-03-31T04:22:54;8.32;;;3.13;;
21814;SDS011;11069;48.988;8.450;2023-03-31T04:25:20;6.13;;;3.00;;
21814;SDS011;11069;48.988;8.450;2023-03-31T04:27:47;4.95;;;3.00;;
21814;SDS011;11069;48.988;8.450;2023-03-31T04:30:20;6.40;;;3.10;;
21814;SDS011;11069;48.988;8.450;2023-03-31T04:32:50;8.20;;;3.17;;
21814;SDS011;11069;48.988;8.450;2023-03-31T04:35:19;7.40;;;2.92;;
21814;SDS011;11069;48.988;8.450;2023-03-31T04:37:49;6.97;;;3.23;;
21814;SDS011;11069;48.988;8.450;2023-03-31T04:40:16;7.60;;;3.28;;
21814;SDS011;11069;48.988;8.450;2023-03-31T04:42:42;6.18;;;3.08;;
21814;SDS011;11069;48.988;8.450;2023-03-31T04:45:09;6.85;;;3.53;;
21814;SDS011;11069;48.988;8.450;2023-03-31T04:47:35;5.50;;;3.08;;
21814;SDS011;11069;48.988;8.450;2023-03-31T04:50:01;5.82;;;3.33;;
21814;SDS011;11069;48.988;8.450;2023-03-31T04:52:27;8.77;;;3.35;;
21814;SDS011;11069;48.988;8.450;2023-03-31T04:54:52;8.27;;;3.67;;
21814;SDS011;11069;48.988;8.450;2023-03-31T04:57:18;7.90;;;3.45;;
21814;SDS011;11069;48.988;8.450;2023-03-31T04:59:43;8.45;;;4.18;;
21814;SDS011;11069;48.988;8.450;2023-03-31T05:02:10;10.30;;;3.97;;
21814;SDS011;11069;48.988;8.450;2023-03-31T05:04:35;10.45;;;3.95;;
21814;SDS011;11069;48.988;8.450;2023-03-31T05:07:01;9.15;;;4.07;;
21814;SDS011;11069;48.988;8.450;2023-03-31T05:09:27;9.35;;;4.80;;
21814;SDS011;11069;48.988;8.450;2023-03-31T05:11:55;6.47;;;4.18;;
21814;SDS011;11069;48.988;8.450;2023-03-31T05:14:21;9.27;;;4.78;;
21814;SDS011;11069;48.988;8.450;2023-03-31T05:16:46;9.90;;;4.95;;
21814;SDS011;11069;48.988;8.450;2023-03-31T05:19:12;8.00;;;4.63;;
21814;SDS011;11069;48.988;8.450;2023-03-31T05:21:37;10.00;;;4.43;;
21814;SDS011;11069;48.988;8.450;2023-03-31T05:24:03;10.82;;;5.10;;
21814;SDS011;11069;48.988;8.450;2023-03-31T05:26:28;11.55;;;5.00;;
21814;SDS011;11069;48.988;8.450;2023-03-31T05:28:54;9.73;;;4.90;;
21814;SDS011;11069;48.988;8.450;2023-03-31T05:31:20;9.90;;;5.00;;
21814;SDS011;11069;48.988;8.450;2023-03-31T05:33:46;10.23;;;5.47;;
21814;SDS011;11069;48.988;8.450;2023-03-31T05:36:13;10.50;;;5.43;;
21814;SDS011;11069;48.988;8.450;2023-03-31T05:38:40;10.63;;;5.43;;
21814;SDS011;11069;48.988;8.450;2023-03-31T05:41:06;9.50;;;5.80;;
21814;SDS011;11069;48.988;8.450;2023-03-31T05:43:33;16.42;;;6.47;;
21814;SDS011;11069;48.988;8.450;2023-03-31T05:45:59;13.88;;;7.10;;
21814;SDS011;11069;48.988;8.450;2023-03-31T05:48:25;12.73;;;6.72;;
21814;SDS011;11069;48.988;8.450;2023-03-31T05:50:54;17.98;;;7.30;;
21814;SDS011;11069;48.988;8.450;2023-03-31T05:53:24;10.90;;;6.80;;
21814;SDS011;11069;48.988;8.450;2023-03-31T05:55:55;13.27;;;7.43;;
21814;SDS011;11069;48.988;8.450;2023-03-31T05:58:22;11.00;;;7.03;;
21814;SDS011;11069;48.988;8.450;2023-03-31T06:00:48;14.77;;;7.47;;
21814;SDS011;11069;48.988;8.450;2023-03-31T06:03:13;13.88;;;7.40;;
21814;SDS011;11069;48.988;8.450;2023-03-31T06:05:39;18.42;;;7.93;;
21814;SDS011;11069;48.988;8.450;2023-03-31T06:08:12;16.73;;;8.25;;
21814;SDS011;11069;48.988;8.450;2023-03-31T06:10:37;17.42;;;8.73;;
21814;SDS011;11069;48.988;8.450;2023-03-31T06:13:03;17.02;;;9.25;;
21814;SDS011;11069;48.988;8.450;2023-03-31T06:15:28;17.00;;;8.70;;
21814;SDS011;11069;48.988;8.450;2023-03-31T06:17:54;16.70;;;9.15;;
21814;SDS011;11069;48.988;8.450;2023-03-31T06:20:20;18.52;;;8.57;;
21814;SDS011;11069;48.988;8.450;2023-03-31T06:22:45;13.18;;;7.38;;
21814;SDS011;11069;48.988;8.450;2023-03-31T06:25:11;13.73;;;7.40;;
21814;SDS011;11069;48.988;8.450;2023-03-31T06:27:36;12.48;;;7.55;;
21814;SDS011;11069;48.988;8.450;2023-03-31T06:30:02;12.27;;;7.60;;
21814;SDS011;11069;48.988;8.450;2023-03-31T06:32:28;14.07;;;7.85;;
21814;SDS011;11069;48.988;8.450;2023-03-31T06:34:53;12.55;;;7.50;;
21814;SDS011;11069;48.988;8.450;2023-03-31T06:37:19;17.10;;;8.02;;
21814;SDS011;11069;48.988;8.450;2023-03-31T06:39:44;14.45;;;7.95;;
21814;SDS011;11069;48.988;8.450;2023-03-31T06:42:10;14.45;;;7.30;;
21814;SDS011;11069;48.988;8.450;2023-03-31T06:44:35;11.80;;;7.68;;
21814;SDS011;11069;48.988;8.450;2023-03-31T06:47:01;13.18;;;7.10;;
21814;SDS011;11069;48.988;8.450;2023-03-31T06:49:27;11.00;;;6.43;;
21814;SDS011;11069;48.988;8.450;2023-03-31T06:51:52;9.68;;;5.90;;
21814;SDS011;11069;48.988;8.450;2023-03-31T06:54:18;8.23;;;4.72;;
21814;SDS011;11069;48.988;8.450;2023-03-31T06:56:43;8.00;;;4.15;;
21814;SDS011;11069;48.988;8.450;2023-03-31T06:59:09;10.48;;;4.32;;
21814;SDS011;11069;48.988;8.450;2023-03-31T07:01:34;6.35;;;3.65;;
21814;SDS011;11069;48.988;8.450;2023-03-31T07:04:01;6.53;;;3.53;;
21814;SDS011;11069;48.988;8.450;2023-03-31T07:06:27;5.68;;;3.67;;
21814;SDS011;11069;48.988;8.450;2023-03-31T07:08:53;6.45;;;3.80;;
21814;SDS011;11069;48.988;8.450;2023-03-31T07:11:18;6.70;;;3.55;;
21814;SDS011;11069;48.988;8.450;2023-03-31T07:13:44;5.75;;;3.20;;
21814;SDS011;11069;48.988;8.450;2023-03-31T07:16:10;8.68;;;3.63;;
21814;SDS011;11069;48.988;8.450;2023-03-31T07:18:38;6.10;;;3.10;;
21814;SDS011;11069;48.988;8.450;2023-03-31T07:21:06;6.00;;;2.70;;
21814;SDS011;11069;48.988;8.450;2023-03-31T07:23:32;7.38;;;2.97;;
21814;SDS011;11069;48.988;8.450;2023-03-31T07:25:58;4.80;;;2.50;;
21814;SDS011;11069;48.988;8.450;2023-03-31T07:28:26;4.30;;;2.20;;
21814;SDS011;11069;48.988;8.450;2023-03-31T07:30:55;4.93;;;2.20;;
21814;SDS011;11069;48.988;8.450;2023-03-31T07:33:21;4.72;;;2.00;;
21814;SDS011;11069;48.988;8.450;2023-03-31T07:35:46;4.78;;;2.28;;
21814;SDS011;11069;48.988;8.450;2023-03-31T07:38:12;4.32;;;1.98;;
21814;SDS011;11069;48.988;8.450;2023-03-31T07:40:38;2.63;;;1.67;;
21814;SDS011;11069;48.988;8.450;2023-03-31T07:43:04;3.05;;;1.58;;
21814;SDS011;11069;48.988;8.450;2023-03-31T07:45:31;4.22;;;2.00;;
21814;SDS011;11069;48.988;8.450;2023-03-31T07:47:57;4.03;;;1.52;;
21814;SDS011;11069;48.988;8.450;2023-03-31T07:50:22;2.00;;;1.60;;
21814;SDS011;11069;48.988;8.450;2023-03-31T07:52:48;3.80;;;1.80;;
21814;SDS011;11069;48.988;8.450;2023-03-31T07:55:15;5.55;;;1.67;;
21814;SDS011;11069;48.988;8.450;2023-03-31T07:57:42;3.33;;;1.70;;
21814;SDS011;11069;48.988;8.450;2023-03-31T08:00:10;5.82;;;2.00;;
21814;SDS011;11069;48.988;8.450;2023-03-31T08:02:36;4.00;;;1.70;;
21814;SDS011;11069;48.988;8.450;2023-03-31T08:05:02;5.75;;;2.10;;
21814;SDS011;11069;48.988;8.450;2023-03-31T08:07:29;3.85;;;1.80;;
21814;SDS011;11069;48.988;8.450;2023-03-31T08:09:58;3.78;;;1.73;;
21814;SDS011;11069;48.988;8.450;2023-03-31T08:12:24;3.13;;;1.40;;
21814;SDS011;11069;48.988;8.450;2023-03-31T08:14:50;5.07;;;1.95;;
21814;SDS011;11069;48.988;8.450;2023-03-31T08:17:15;5.20;;;2.10;;
21814;SDS011;11069;48.988;8.450;2023-03-31T08:19:41;4.28;;;1.75;;
21814;SDS011;11069;48.988;8.450;2023-03-31T08:22:06;5.95;;;2.25;;
21814;SDS011;11069;48.988;8.450;2023-03-31T08:24:32;5.32;;;2.15;;
21814;SDS011;11069;48.988;8.450;2023-03-31T08:26:57;5.35;;;2.00;;
21814;SDS011;11069;48.988;8.450;2023-03-31T08:29:23;5.50;;;2.03;;
21814;SDS011;11069;48.988;8.450;2023-03-31T08:31:49;4.82;;;2.20;;
21814;SDS011;11069;48.988;8.450;2023-03-31T08:34:15;3.85;;;1.80;;
21814;SDS011;11069;48.988;8.450;2023-03-31T08:36:40;4.40;;;1.90;;
21814;SDS011;11069;48.988;8.450;2023-03-31T08:39:06;7.95;;;2.38;;
21814;SDS011;11069;48.988;8.450;2023-03-31T08:46:53;5.03;;;2.00;;
21814;SDS011;11069;48.988;8.450;2023-03-31T08:49:21;3.85;;;2.00;;
21814;SDS011;11069;48.988;8.450;2023-03-31T08:51:58;6.57;;;2.10;;
21814;SDS011;11069;48.988;8.450;2023-03-31T08:56:57;5.95;;;1.80;;
21814;SDS011;11069;48.988;8.450;2023-03-31T09:07:29;3.42;;;1.80;;
21814;SDS011;11069;48.988;8.450;2023-03-31T09:09:54;6.05;;;1.75;;
21814;SDS011;11069;48.988;8.450;2023-03-31T09:12:24;5.22;;;1.70;;
21814;SDS011;11069;48.988;8.450;2023-03-31T09:15:13;3.65;;;1.45;;
21814;SDS011;11069;48.988;8.450;2023-03-31T09:18:03;5.90;;;1.70;;
21814;SDS011;11069;48.988;8.450;2023-03-31T09:20:38;5.03;;;1.90;;
21814;SDS011;11069;48.988;8.450;2023-03-31T09:23:28;6.82;;;2.03;;
21814;SDS011;11069;48.988;8.450;2023-03-31T09:26:02;9.20;;;2.03;;
21814;SDS011;11069;48.988;8.450;2023-03-31T09:28:29;5.72;;;1.85;;
21814;SDS011;11069;48.988;8.450;2023-03-31T09:31:02;4.57;;;1.90;;
21814;SDS011;11069;48.988;8.450;2023-03-31T09:36:12;4.43;;;1.73;;
21814;SDS011;11069;48.988;8.450;2023-03-31T09:38:41;5.10;;;1.90;;
21814;SDS011;11069;48.988;8.450;2023-03-31T09:41:08;5.43;;;1.90;;
21814;SDS011;11069;48.988;8.450;2023-03-31T09:43:35;5.45;;;2.13;;
21814;SDS011;11069;48.988;8.450;2023-03-31T09:46:11;5.75;;;1.85;;
21814;SDS011;11069;48.988;8.450;2023-03-31T09:48:42;6.75;;;2.40;;
21814;SDS011;11069;48.988;8.450;2023-03-31T09:51:21;5.68;;;2.08;;
21814;SDS011;11069;48.988;8.450;2023-03-31T09:53:52;5.28;;;2.13;;
21814;SDS011;11069;48.988;8.450;2023-03-31T09:59:12;5.78;;;1.70;;
21814;SDS011;11069;48.988;8.450;2023-03-31T10:01:40;8.95;;;2.30;;
21814;SDS011;11069;48.988;8.450;2023-03-31T10:04:07;6.55;;;2.20;;
21814;SDS011;11069;48.988;8.450;2023-03-31T10:06:33;5.72;;;2.33;;
21814;SDS011;11069;48.988;8.450;2023-03-31T10:09:06;7.68;;;2.22;;
21814;SDS011;11069;48.988;8.450;2023-03-31T10:11:35;6.80;;;2.22;;
21814;SDS011;11069;48.988;8.450;2023-03-31T10:14:02;7.53;;;2.47;;
21814;SDS011;11069;48.988;8.450;2023-03-31T10:19:28;7.22;;;2.28;;
21814;SDS011;11069;48.988;8.450;2023-03-31T10:22:02;7.72;;;2.47;;
21814;SDS011;11069;48.988;8.450;2023-03-31T10:24:39;6.93;;;2.53;;
21814;SDS011;11069;48.988;8.450;2023-03-31T10:27:15;7.93;;;2.10;;
21814;SDS011;11069;48.988;8.450;2023-03-31T10:29:46;9.75;;;2.58;;
21814;SDS011;11069;48.988;8.450;2023-03-31T10:34:52;9.50;;;2.47;;
21814;SDS011;11069;48.988;8.450;2023-03-31T10:37:21;8.40;;;2.72;;
21814;SDS011;11069;48.988;8.450;2023-03-31T10:40:03;6.72;;;2.00;;
21814;SDS011;11069;48.988;8.450;2023-03-31T10:42:38;7.88;;;2.55;;
21814;SDS011;11069;48.988;8.450;2023-03-31T10:45:37;9.90;;;3.22;;
21814;SDS011;11069;48.988;8.450;2023-03-31T10:48:01;11.43;;;2.70;;
21814;SDS011;11069;48.988;8.450;2023-03-31T10:50:31;6.03;;;1.77;;
21814;SDS011;11069;48.988;8.450;2023-03-31T10:55:36;4.63;;;1.50;;
21814;SDS011;11069;48.988;8.450;2023-03-31T11:26:03;1.98;;;1.20;;
21814;SDS011;11069;48.988;8.450;2023-03-31T11:31:31;2.38;;;0.75;;
21814;SDS011;11069;48.988;8.450;2023-03-31T11:36:36;1.15;;;0.65;;
21814;SDS011;11069;48.988;8.450;2023-03-31T11:39:12;1.42;;;0.80;;
21814;SDS011;11069;48.988;8.450;2023-03-31T11:41:43;2.00;;;0.90;;
21814;SDS011;11069;48.988;8.450;2023-03-31T11:44:16;1.20;;;0.65;;
21814;SDS011;11069;48.988;8.450;2023-03-31T11:46:56;1.92;;;0.70;;
21814;SDS011;11069;48.988;8.450;2023-03-31T11:49:40;1.73;;;0.80;;
21814;SDS011;11069;48.988;8.450;2023-03-31T11:52:13;1.15;;;0.60;;
21814;SDS011;11069;48.988;8.450;2023-03-31T11:54:47;3.00;;;1.00;;
21814;SDS011;11069;48.988;8.450;2023-03-31T12:00:25;1.95;;;1.02;;
21814;SDS011;11069;48.988;8.450;2023-03-31T12:03:03;3.00;;;1.05;;
21814;SDS011;11069;48.988;8.450;2023-03-31T12:05:44;3.90;;;1.10;;
21814;SDS011;11069;48.988;8.450;2023-03-31T12:11:08;4.05;;;1.00;;
21814;SDS011;11069;48.988;8.450;2023-03-31T12:24:33;1.98;;;0.90;;
21814;SDS011;11069;48.988;8.450;2023-03-31T12:27:03;2.97;;;1.08;;
21814;SDS011;11069;48.988;8.450;2023-03-31T12:29:59;3.78;;;1.25;;
21814;SDS011;11069;48.988;8.450;2023-03-31T12:32:35;3.65;;;1.02;;
21814;SDS011;11069;48.988;8.450;2023-03-31T12:45:34;3.42;;;1.27;;
21814;SDS011;11069;48.988;8.450;2023-03-31T12:53:33;2.20;;;1.20;;
21814;SDS011;11069;48.988;8.450;2023-03-31T12:56:19;1.30;;;0.80;;
21814;SDS011;11069;48.988;8.450;2023-03-31T12:58:45;1.42;;;0.85;;
21814;SDS011;11069;48.988;8.450;2023-03-31T13:08:54;2.83;;;1.08;;
21814;SDS011;11069;48.988;8.450;2023-03-31T13:14:03;4.32;;;1.20;;
21814;SDS011;11069;48.988;8.450;2023-03-31T13:16:46;2.55;;;1.20;;
21814;SDS011;11069;48.988;8.450;2023-03-31T13:19:27;4.32;;;1.20;;
21814;SDS011;11069;48.988;8.450;2023-03-31T13:21:59;3.75;;;1.40;;
21814;SDS011;11069;48.988;8.450;2023-03-31T13:24:27;5.18;;;1.00;;
21814;SDS011;11069;48.988;8.450;2023-03-31T13:26:55;2.38;;;1.13;;
21814;SDS011;11069;48.988;8.450;2023-03-31T13:29:41;2.60;;;0.88;;
21814;SDS011;11069;48.988;8.450;2023-03-31T13:32:16;4.10;;;1.20;;
21814;SDS011;11069;48.988;8.450;2023-03-31T13:42:50;3.38;;;1.35;;
21814;SDS011;11069;48.988;8.450;2023-03-31T13:45:45;4.70;;;1.50;;
21814;SDS011;11069;48.988;8.450;2023-03-31T13:48:41;4.93;;;1.17;;
21814;SDS011;11069;48.988;8.450;2023-03-31T13:51:17;5.25;;;1.20;;
21814;SDS011;11069;48.988;8.450;2023-03-31T14:13:42;4.47;;;1.30;;
21814;SDS011;11069;48.988;8.450;2023-03-31T14:16:07;5.47;;;1.50;;
21814;SDS011;11069;48.988;8.450;2023-03-31T14:18:34;3.40;;;1.30;;
21814;SDS011;11069;48.988;8.450;2023-03-31T14:29:21;3.17;;;1.23;;
21814;SDS011;11069;48.988;8.450;2023-03-31T14:37:21;4.03;;;1.17;;
21814;SDS011;11069;48.988;8.450;2023-03-31T14:39:52;1.70;;;0.90;;
21814;SDS011;11069;48.988;8.450;2023-03-31T14:42:25;2.97;;;1.05;;
21814;SDS011;11069;48.988;8.450;2023-03-31T14:45:03;2.25;;;0.90;;
21814;SDS011;11069;48.988;8.450;2023-03-31T14:47:30;2.25;;;1.10;;
21814;SDS011;11069;48.988;8.450;2023-03-31T14:52:36;2.50;;;0.80;;
21814;SDS011;11069;48.988;8.450;2023-03-31T14:55:01;2.70;;;1.10;;
21814;SDS011;11069;48.988;8.450;2023-03-31T14:57:29;1.80;;;0.90;;
21814;SDS011;11069;48.988;8.450;2023-03-31T14:59:57;2.72;;;1.10;;
21814;SDS011;11069;48.988;8.450;2023-03-31T15:02:30;2.42;;;1.00;;
21814;SDS011;11069;48.988;8.450;2023-03-31T15:04:57;2.85;;;1.20;;
21814;SDS011;11069;48.988;8.450;2023-03-31T15:07:25;3.42;;;1.30;;
21814;SDS011;11069;48.988;8.450;2023-03-31T15:09:52;2.15;;;1.00;;
21814;SDS011;11069;48.988;8.450;2023-03-31T15:12:19;5.72;;;1.25;;
21814;SDS011;11069;48.988;8.450;2023-03-31T15:14:47;4.15;;;1.35;;
21814;SDS011;11069;48.988;8.450;2023-03-31T15:17:19;4.28;;;1.38;;
21814;SDS011;11069;48.988;8.450;2023-03-31T15:19:51;4.28;;;1.48;;
21814;SDS011;11069;48.988;8.450;2023-03-31T15:22:18;2.97;;;1.40;;
21814;SDS011;11069;48.988;8.450;2023-03-31T15:24:48;4.80;;;1.77;;
21814;SDS011;11069;48.988;8.450;2023-03-31T15:29:56;4.45;;;1.60;;
21814;SDS011;11069;48.988;8.450;2023-03-31T15:34:52;3.92;;;1.92;;
21814;SDS011;11069;48.988;8.450;2023-03-31T15:37:26;2.97;;;1.48;;
21814;SDS011;11069;48.988;8.450;2023-03-31T15:39:56;3.42;;;1.48;;
21814;SDS011;11069;48.988;8.450;2023-03-31T15:42:24;3.38;;;1.40;;
21814;SDS011;11069;48.988;8.450;2023-03-31T15:44:55;3.83;;;1.38;;
21814;SDS011;11069;48.988;8.450;2023-03-31T15:47:51;3.17;;;1.20;;
21814;SDS011;11069;48.988;8.450;2023-03-31T15:50:19;4.80;;;1.33;;
21814;SDS011;11069;48.988;8.450;2023-03-31T15:52:48;4.15;;;1.38;;
21814;SDS011;11069;48.988;8.450;2023-03-31T15:57:54;4.25;;;1.52;;
21814;SDS011;11069;48.988;8.450;2023-03-31T16:02:55;3.90;;;1.35;;
21814;SDS011;11069;48.988;8.450;2023-03-31T16:05:30;3.72;;;1.20;;
21814;SDS011;11069;48.988;8.450;2023-03-31T16:07:59;6.45;;;1.30;;
21814;SDS011;11069;48.988;8.450;2023-03-31T16:10:25;4.03;;;1.17;;
21814;SDS011;11069;48.988;8.450;2023-03-31T16:13:02;1.80;;;0.98;;
21814;SDS011;11069;48.988;8.450;2023-03-31T16:15:34;1.58;;;0.93;;
21814;SDS011;11069;48.988;8.450;2023-03-31T16:18:05;2.22;;;0.70;;
21814;SDS011;11069;48.988;8.450;2023-03-31T16:20:36;3.63;;;0.80;;
21814;SDS011;11069;48.988;8.450;2023-03-31T16:23:26;1.27;;;0.80;;
21814;SDS011;11069;48.988;8.450;2023-03-31T16:25:54;2.08;;;0.90;;
21814;SDS011;11069;48.988;8.450;2023-03-31T16:28:21;2.30;;;0.80;;
21814;SDS011;11069;48.988;8.450;2023-03-31T16:30:52;0.60;;;0.60;;
21814;SDS011;11069;48.988;8.450;2023-03-31T16:33:19;1.58;;;0.65;;
21814;SDS011;11069;48.988;8.450;2023-03-31T16:35:48;2.67;;;0.98;;
21814;SDS011;11069;48.988;8.450;2023-03-31T16:38:17;1.85;;;0.90;;
21814;SDS011;11069;48.988;8.450;2023-03-31T16:40:47;3.00;;;0.82;;
21814;SDS011;11069;48.988;8.450;2023-03-31T16:43:27;1.30;;;0.80;;
21814;SDS011;11069;48.988;8.450;2023-03-31T16:45:58;2.78;;;1.05;;
21814;SDS011;11069;48.988;8.450;2023-03-31T16:48:28;5.38;;;1.52;;
21814;SDS011;11069;48.988;8.450;2023-03-31T16:50:57;3.15;;;1.10;;
21814;SDS011;11069;48.988;8.450;2023-03-31T16:53:28;2.72;;;1.10;;
21814;SDS011;11069;48.988;8.450;2023-03-31T16:55:58;3.15;;;1.13;;
21814;SDS011;11069;48.988;8.450;2023-03-31T16:58:24;2.08;;;1.08;;
21814;SDS011;11069;48.988;8.450;2023-03-31T17:00:53;4.40;;;1.38;;
21814;SDS011;11069;48.988;8.450;2023-03-31T17:03:19;2.67;;;1.10;;
21814;SDS011;11069;48.988;8.450;2023-03-31T17:05:46;3.60;;;1.58;;
21814;SDS011;11069;48.988;8.450;2023-03-31T17:08:14;5.43;;;1.40;;
21814;SDS011;11069;48.988;8.450;2023-03-31T17:10:41;5.75;;;1.70;;
21814;SDS011;11069;48.988;8.450;2023-03-31T17:13:14;2.78;;;1.27;;
21814;SDS011;11069;48.988;8.450;2023-03-31T17:15:40;5.65;;;1.63;;
21814;SDS011;11069;48.988;8.450;2023-03-31T17:18:05;5.45;;;1.48;;
21814;SDS011;11069;48.988;8.450;2023-03-31T17:20:31;2.67;;;0.95;;
21814;SDS011;11069;48.988;8.450;2023-03-31T17:22:57;4.45;;;1.35;;
21814;SDS011;11069;48.988;8.450;2023-03-31T17:25:23;4.07;;;1.33;;
21814;SDS011;11069;48.988;8.450;2023-03-31T17:27:49;1.58;;;1.00;;
21814;SDS011;11069;48.988;8.450;2023-03-31T17:30:15;2.15;;;0.95;;
21814;SDS011;11069;48.988;8.450;2023-03-31T17:32:40;2.72;;;1.00;;
21814;SDS011;11069;48.988;8.450;2023-03-31T17:35:06;2.28;;;1.00;;
21814;SDS011;11069;48.988;8.450;2023-03-31T17:37:34;4.50;;;1.20;;
21814;SDS011;11069;48.988;8.450;2023-03-31T17:40:01;2.50;;;1.10;;
21814;SDS011;11069;48.988;8.450;2023-03-31T17:42:28;3.72;;;1.10;;
21814;SDS011;11069;48.988;8.450;2023-03-31T17:44:55;3.75;;;1.15;;
21814;SDS011;11069;48.988;8.450;2023-03-31T17:47:22;4.25;;;1.20;;
21814;SDS011;11069;48.988;8.450;2023-03-31T17:49:48;5.40;;;1.90;;
21814;SDS011;11069;48.988;8.450;2023-03-31T17:52:14;3.53;;;1.38;;
21814;SDS011;11069;48.988;8.450;2023-03-31T17:54:39;5.45;;;1.42;;
21814;SDS011;11069;48.988;8.450;2023-03-31T17:57:06;4.75;;;1.70;;
21814;SDS011;11069;48.988;8.450;2023-03-31T17:59:32;5.03;;;1.60;;
21814;SDS011;11069;48.988;8.450;2023-03-31T18:01:57;2.83;;;1.35;;
21814;SDS011;11069;48.988;8.450;2023-03-31T18:04:24;4.10;;;1.70;;
21814;SDS011;11069;48.988;8.450;2023-03-31T18:06:51;6.45;;;1.75;;
21814;SDS011;11069;48.988;8.450;2023-03-31T18:09:16;4.82;;;1.63;;
21814;SDS011;11069;48.988;8.450;2023-03-31T18:11:42;6.50;;;1.63;;
21814;SDS011;11069;48.988;8.450;2023-03-31T18:14:08;3.45;;;1.70;;
21814;SDS011;11069;48.988;8.450;2023-03-31T18:16:33;4.60;;;1.70;;
21814;SDS011;11069;48.988;8.450;2023-03-31T18:18:59;3.72;;;1.83;;
21814;SDS011;11069;48.988;8.450;2023-03-31T18:21:26;5.43;;;1.70;;
21814;SDS011;11069;48.988;8.450;2023-03-31T18:23:51;5.05;;;1.73;;
21814;SDS011;11069;48.988;8.450;2023-03-31T18:26:19;5.43;;;1.60;;
21814;SDS011;11069;48.988;8.450;2023-03-31T18:28:46;4.72;;;1.52;;
21814;SDS011;11069;48.988;8.450;2023-03-31T18:31:12;3.88;;;1.67;;